createdAt,value
2022-08-03T00:00:12.944Z,995.38
2022-08-03T00:01:12.926Z,995.37
2022-08-03T00:02:12.951Z,995.41
2022-08-03T00:03:13.016Z,995.39
2022-08-03T00:04:12.872Z,995.37
2022-08-03T00:05:12.846Z,995.36
2022-08-03T00:06:12.834Z,995.36
2022-08-03T00:07:12.814Z,995.36
2022-08-03T00:08:12.790Z,995.33
2022-08-03T00:09:12.777Z,995.34
2022-08-03T00:10:12.777Z,995.34
2022-08-03T00:11:12.746Z,995.35
2022-08-03T00:12:12.712Z,995.34
2022-08-03T00:13:12.698Z,995.36
2022-08-03T00:14:12.674Z,995.37
2022-08-03T00:15:16.727Z,995.33
2022-08-03T00:16:12.637Z,995.32
2022-08-03T00:17:12.616Z,995.32
2022-08-03T00:18:12.594Z,995.33
2022-08-03T00:19:12.573Z,995.32
2022-08-03T00:20:12.557Z,995.33
2022-08-03T00:21:12.537Z,995.31
2022-08-03T00:22:12.516Z,995.32
2022-08-03T00:23:12.498Z,995.33
2022-08-03T00:24:12.476Z,995.27
2022-08-03T00:25:12.477Z,995.30
2022-08-03T00:26:12.442Z,995.29
2022-08-03T00:27:12.417Z,995.28
2022-08-03T00:28:12.399Z,995.28
2022-08-03T00:29:12.378Z,995.28
2022-08-03T00:30:12.362Z,995.27
2022-08-03T00:31:13.305Z,995.25
2022-08-03T00:32:12.391Z,995.27
2022-08-03T00:33:12.301Z,995.27
2022-08-03T00:34:12.420Z,995.23
2022-08-03T00:35:18.063Z,995.27
2022-08-03T00:36:12.247Z,995.25
2022-08-03T00:37:12.223Z,995.24
2022-08-03T00:38:12.204Z,995.26
2022-08-03T00:39:12.188Z,995.27
2022-08-03T00:40:12.161Z,995.26
2022-08-03T00:41:12.145Z,995.26
2022-08-03T00:42:12.120Z,995.24
2022-08-03T00:43:12.134Z,995.24
2022-08-03T00:44:12.089Z,995.21
2022-08-03T00:45:12.062Z,995.22
2022-08-03T00:46:12.044Z,995.21
2022-08-03T00:47:12.022Z,995.22
2022-08-03T00:48:29.684Z,995.21
2022-08-03T00:49:12.036Z,995.21
2022-08-03T00:50:11.972Z,995.22
2022-08-03T00:51:11.949Z,995.21
2022-08-03T00:52:11.952Z,995.19
2022-08-03T00:53:11.912Z,995.22
2022-08-03T00:54:11.899Z,995.18
2022-08-03T00:55:11.866Z,995.22
2022-08-03T00:56:11.852Z,995.21
2022-08-03T00:57:11.827Z,995.20
2022-08-03T00:58:11.804Z,995.20
2022-08-03T00:59:11.815Z,995.18
2022-08-03T01:00:11.764Z,995.19
2022-08-03T01:01:11.803Z,995.17
2022-08-03T01:02:11.730Z,995.15
2022-08-03T01:03:11.712Z,995.18
2022-08-03T01:04:11.695Z,995.16
2022-08-03T01:05:11.690Z,995.18
2022-08-03T01:06:11.659Z,995.15
2022-08-03T01:07:11.627Z,995.15
2022-08-03T01:08:11.618Z,995.18
2022-08-03T01:09:11.616Z,995.15
2022-08-03T01:10:11.575Z,995.18
2022-08-03T01:11:11.558Z,995.17
2022-08-03T01:12:11.533Z,995.16
2022-08-03T01:13:59.089Z,995.15
2022-08-03T01:14:18.883Z,995.13
2022-08-03T01:15:11.496Z,995.14
2022-08-03T01:16:11.454Z,995.13
2022-08-03T01:17:11.457Z,995.15
2022-08-03T01:18:11.410Z,995.14
2022-08-03T01:19:11.394Z,995.14
2022-08-03T01:20:11.382Z,995.15
2022-08-03T01:21:11.357Z,995.13
2022-08-03T01:22:11.345Z,995.14
2022-08-03T01:23:11.320Z,995.12
2022-08-03T01:24:11.297Z,995.11
2022-08-03T01:25:11.275Z,995.08
2022-08-03T01:26:11.253Z,995.05
2022-08-03T01:27:11.236Z,995.04
2022-08-03T01:28:11.327Z,995.06
2022-08-03T01:29:11.226Z,995.06
2022-08-03T01:30:11.181Z,995.05
2022-08-03T01:31:11.181Z,995.06
2022-08-03T01:33:03.069Z,995.06
2022-08-03T01:33:11.530Z,995.02
2022-08-03T01:34:14.684Z,995.00
2022-08-03T01:35:11.075Z,995.07
2022-08-03T01:36:11.055Z,995.04
2022-08-03T01:37:11.033Z,995.03
2022-08-03T01:38:11.019Z,995.00
2022-08-03T01:39:10.990Z,994.99
2022-08-03T01:40:10.987Z,994.99
2022-08-03T01:41:10.956Z,994.98
2022-08-03T01:42:10.947Z,994.94
2022-08-03T01:43:10.917Z,994.96
2022-08-03T01:44:30.133Z,994.98
2022-08-03T01:45:10.880Z,994.95
2022-08-03T01:46:10.893Z,994.92
2022-08-03T01:47:10.833Z,994.93
2022-08-03T01:48:10.821Z,994.94
2022-08-03T01:49:10.812Z,994.96
2022-08-03T01:50:10.772Z,994.92
2022-08-03T01:51:10.764Z,994.95
2022-08-03T01:52:10.732Z,994.92
2022-08-03T01:53:10.716Z,994.89
2022-08-03T01:54:10.695Z,994.92
2022-08-03T01:55:10.682Z,994.92
2022-08-03T01:56:10.695Z,994.89
2022-08-03T01:57:10.664Z,994.92
2022-08-03T01:58:10.624Z,994.89
2022-08-03T01:59:10.594Z,994.91
2022-08-03T02:00:10.580Z,994.86
2022-08-03T02:01:10.622Z,994.92
2022-08-03T02:02:29.117Z,994.88
2022-08-03T02:03:10.515Z,994.87
2022-08-03T02:04:10.490Z,994.83
2022-08-03T02:05:11.286Z,994.84
2022-08-03T02:07:01.334Z,994.83
2022-08-03T02:07:10.437Z,994.84
2022-08-03T02:08:10.415Z,994.88
2022-08-03T02:09:10.393Z,994.82
2022-08-03T02:10:10.372Z,994.83
2022-08-03T02:11:10.355Z,994.83
2022-08-03T02:12:10.345Z,994.83
2022-08-03T02:13:10.310Z,994.83
2022-08-03T02:14:10.295Z,994.84
2022-08-03T02:15:10.273Z,994.83
2022-08-03T02:16:10.259Z,994.82
2022-08-03T02:17:10.243Z,994.81
2022-08-03T02:18:10.213Z,994.79
2022-08-03T02:19:10.197Z,994.84
2022-08-03T02:20:10.172Z,994.81
2022-08-03T02:21:10.998Z,994.84
2022-08-03T02:22:10.130Z,994.84
2022-08-03T02:23:10.115Z,994.81
2022-08-03T02:24:10.094Z,994.82
2022-08-03T02:25:10.075Z,994.77
2022-08-03T02:26:10.047Z,994.81
2022-08-03T02:27:10.028Z,994.77
2022-08-03T02:28:10.011Z,994.80
2022-08-03T02:29:09.987Z,994.77
2022-08-03T02:30:09.979Z,994.78
2022-08-03T02:31:09.945Z,994.77
2022-08-03T02:32:10.014Z,994.75
2022-08-03T02:33:09.954Z,994.78
2022-08-03T02:34:09.884Z,994.78
2022-08-03T02:35:09.865Z,994.76
2022-08-03T02:36:09.857Z,994.77
2022-08-03T02:37:09.829Z,994.78
2022-08-03T02:38:09.810Z,994.73
2022-08-03T02:39:09.785Z,994.77
2022-08-03T02:40:09.765Z,994.76
2022-08-03T02:41:09.750Z,994.77
2022-08-03T02:42:09.747Z,994.73
2022-08-03T02:43:09.706Z,994.73
2022-08-03T02:44:09.690Z,994.78
2022-08-03T02:45:09.662Z,994.75
2022-08-03T02:46:09.645Z,994.73
2022-08-03T02:47:09.630Z,994.74
2022-08-03T02:48:09.605Z,994.73
2022-08-03T02:49:49.431Z,994.73
2022-08-03T02:50:09.606Z,994.73
2022-08-03T02:51:09.553Z,994.73
2022-08-03T02:52:11.343Z,994.68
2022-08-03T02:53:09.505Z,994.71
2022-08-03T02:54:09.478Z,994.70
2022-08-03T02:55:09.459Z,994.72
2022-08-03T02:56:09.442Z,994.66
2022-08-03T02:57:09.433Z,994.70
2022-08-03T02:58:09.401Z,994.72
2022-08-03T02:59:09.379Z,994.69
2022-08-03T03:00:09.392Z,994.67
2022-08-03T03:01:09.385Z,994.72
2022-08-03T03:02:09.318Z,994.69
2022-08-03T03:03:09.302Z,994.68
2022-08-03T03:04:09.305Z,994.67
2022-08-03T03:05:52.758Z,994.66
2022-08-03T03:06:09.245Z,994.65
2022-08-03T03:07:09.225Z,994.65
2022-08-03T03:08:17.710Z,994.65
2022-08-03T03:09:09.174Z,994.62
2022-08-03T03:10:09.180Z,994.64
2022-08-03T03:11:09.150Z,994.65
2022-08-03T03:12:09.131Z,994.67
2022-08-03T03:13:09.092Z,994.62
2022-08-03T03:14:09.071Z,994.65
2022-08-03T03:15:09.071Z,994.67
2022-08-03T03:16:09.034Z,994.63
2022-08-03T03:17:09.013Z,994.70
2022-08-03T03:18:08.990Z,994.69
2022-08-03T03:19:08.975Z,994.67
2022-08-03T03:20:08.972Z,994.68
2022-08-03T03:21:08.929Z,994.67
2022-08-03T03:22:08.928Z,994.67
2022-08-03T03:23:08.891Z,994.68
2022-08-03T03:24:08.876Z,994.68
2022-08-03T03:25:08.861Z,994.67
2022-08-03T03:26:08.838Z,994.66
2022-08-03T03:27:08.811Z,994.64
2022-08-03T03:28:08.794Z,994.68
2022-08-03T03:29:08.767Z,994.72
2022-08-03T03:30:08.747Z,994.71
2022-08-03T03:31:08.734Z,994.70
2022-08-03T03:32:09.334Z,994.68
2022-08-03T03:33:08.730Z,994.73
2022-08-03T03:34:08.662Z,994.78
2022-08-03T03:35:08.643Z,994.75
2022-08-03T03:36:08.626Z,994.76
2022-08-03T03:37:08.637Z,994.77
2022-08-03T03:38:08.582Z,994.79
2022-08-03T03:39:15.660Z,994.80
2022-08-03T03:40:08.543Z,994.75
2022-08-03T03:41:08.521Z,994.75
2022-08-03T03:42:08.500Z,994.76
2022-08-03T03:43:08.486Z,994.76
2022-08-03T03:44:08.465Z,994.75
2022-08-03T03:45:08.442Z,994.72
2022-08-03T03:46:08.422Z,994.69
2022-08-03T03:47:08.396Z,994.72
2022-08-03T03:48:08.391Z,994.69
2022-08-03T03:49:08.420Z,994.71
2022-08-03T03:50:08.346Z,994.68
2022-08-03T03:51:08.321Z,994.71
2022-08-03T03:52:08.296Z,994.69
2022-08-03T03:53:09.311Z,994.72
2022-08-03T03:54:08.253Z,994.69
2022-08-03T03:55:08.235Z,994.68
2022-08-03T03:56:08.217Z,994.71
2022-08-03T03:57:08.195Z,994.70
2022-08-03T03:58:08.181Z,994.74
2022-08-03T03:59:08.153Z,994.71
2022-08-03T04:00:08.138Z,994.70
2022-08-03T04:01:08.266Z,994.75
2022-08-03T04:02:08.088Z,994.72
2022-08-03T04:03:08.069Z,994.74
2022-08-03T04:04:08.061Z,994.75
2022-08-03T04:05:08.036Z,994.72
2022-08-03T04:06:08.012Z,994.70
2022-08-03T04:07:08.013Z,994.71
2022-08-03T04:08:07.970Z,994.72
2022-08-03T04:09:08.035Z,994.69
2022-08-03T04:10:14.356Z,994.70
2022-08-03T04:11:07.903Z,994.70
2022-08-03T04:12:07.882Z,994.73
2022-08-03T04:13:07.876Z,994.72
2022-08-03T04:14:07.856Z,994.73
2022-08-03T04:15:07.826Z,994.78
2022-08-03T04:16:07.808Z,994.75
2022-08-03T04:17:07.782Z,994.74
2022-08-03T04:18:07.762Z,994.73
2022-08-03T04:19:07.744Z,994.77
2022-08-03T04:20:07.722Z,994.76
2022-08-03T04:21:07.700Z,994.78
2022-08-03T04:22:07.679Z,994.76
2022-08-03T04:23:13.485Z,994.77
2022-08-03T04:24:07.652Z,994.75
2022-08-03T04:25:07.628Z,994.77
2022-08-03T04:26:07.605Z,994.75
2022-08-03T04:27:07.580Z,994.77
2022-08-03T04:28:08.035Z,994.76
2022-08-03T04:29:07.541Z,994.78
2022-08-03T04:30:07.526Z,994.76
2022-08-03T04:31:07.495Z,994.79
2022-08-03T04:32:07.474Z,994.81
2022-08-03T04:33:07.457Z,994.80
2022-08-03T04:34:07.437Z,994.80
2022-08-03T04:35:07.417Z,994.84
2022-08-03T04:36:07.400Z,994.84
2022-08-03T04:37:07.374Z,994.84
2022-08-03T04:38:07.352Z,994.81
2022-08-03T04:39:07.334Z,994.84
2022-08-03T04:40:07.309Z,994.84
2022-08-03T04:41:07.291Z,994.86
2022-08-03T04:42:09.055Z,994.84
2022-08-03T04:43:07.249Z,994.85
2022-08-03T04:44:07.230Z,994.86
2022-08-03T04:45:07.204Z,994.90
2022-08-03T04:46:07.191Z,994.83
2022-08-03T04:47:07.167Z,994.87
2022-08-03T04:48:07.159Z,994.85
2022-08-03T04:49:07.177Z,994.87
2022-08-03T04:50:11.908Z,994.92
2022-08-03T04:51:07.089Z,994.89
2022-08-03T04:52:07.074Z,994.92
2022-08-03T04:53:07.185Z,994.89
2022-08-03T04:54:07.028Z,994.90
2022-08-03T04:55:07.009Z,994.90
2022-08-03T04:56:06.989Z,994.94
2022-08-03T04:57:06.964Z,994.94
2022-08-03T04:58:06.941Z,994.95
2022-08-03T04:59:06.918Z,994.98
2022-08-03T05:00:06.908Z,994.94
2022-08-03T05:01:06.916Z,994.94
2022-08-03T05:02:06.922Z,994.98
2022-08-03T05:03:19.414Z,994.95
2022-08-03T05:04:06.826Z,994.97
2022-08-03T05:05:06.806Z,994.96
2022-08-03T05:06:11.015Z,994.93
2022-08-03T05:07:12.287Z,994.98
2022-08-03T05:08:06.783Z,994.96
2022-08-03T05:09:06.730Z,994.99
2022-08-03T05:10:14.915Z,994.98
2022-08-03T05:11:06.688Z,994.98
2022-08-03T05:12:06.662Z,994.95
2022-08-03T05:13:06.642Z,994.96
2022-08-03T05:14:06.625Z,994.96
2022-08-03T05:15:06.614Z,994.96
2022-08-03T05:16:06.585Z,994.96
2022-08-03T05:17:06.573Z,994.94
2022-08-03T05:18:10.664Z,994.95
2022-08-03T05:19:06.523Z,994.94
2022-08-03T05:20:06.516Z,994.93
2022-08-03T05:21:06.485Z,994.93
2022-08-03T05:22:06.463Z,994.97
2022-08-03T05:23:06.484Z,994.95
2022-08-03T05:24:06.430Z,994.94
2022-08-03T05:25:06.416Z,994.98
2022-08-03T05:26:06.386Z,994.97
2022-08-03T05:27:06.367Z,994.99
2022-08-03T05:28:06.347Z,995.00
2022-08-03T05:29:06.341Z,995.01
2022-08-03T05:30:31.430Z,995.03
2022-08-03T05:31:06.306Z,995.02
2022-08-03T05:32:16.703Z,995.04
2022-08-03T05:33:06.247Z,995.02
2022-08-03T05:34:06.231Z,995.01
2022-08-03T05:35:57.525Z,995.04
2022-08-03T05:36:06.191Z,995.02
2022-08-03T05:37:06.174Z,995.00
2022-08-03T05:38:06.153Z,995.02
2022-08-03T05:39:06.139Z,995.00
2022-08-03T05:40:06.120Z,994.96
2022-08-03T05:41:22.366Z,995.02
2022-08-03T05:42:06.095Z,995.03
2022-08-03T05:43:06.056Z,994.99
2022-08-03T05:44:06.039Z,995.04
2022-08-03T05:45:06.047Z,995.04
2022-08-03T05:46:12.049Z,995.04
2022-08-03T05:47:05.988Z,995.04
2022-08-03T05:48:05.976Z,995.05
2022-08-03T05:49:05.978Z,995.05
2022-08-03T05:50:05.931Z,995.02
2022-08-03T05:51:05.914Z,995.03
2022-08-03T05:52:13.376Z,995.04
2022-08-03T05:53:05.890Z,995.07
2022-08-03T05:54:05.867Z,995.03
2022-08-03T05:55:05.875Z,995.08
2022-08-03T05:56:14.443Z,995.04
2022-08-03T05:57:05.808Z,995.08
2022-08-03T05:58:05.800Z,995.07
2022-08-03T05:59:22.723Z,995.07
2022-08-03T06:00:05.778Z,995.09
2022-08-03T06:01:05.777Z,995.10
2022-08-03T06:02:05.792Z,995.10
2022-08-03T06:03:05.699Z,995.11
2022-08-03T06:04:05.682Z,995.13
2022-08-03T06:05:05.664Z,995.08
2022-08-03T06:06:05.647Z,995.10
2022-08-03T06:07:05.627Z,995.12
2022-08-03T06:08:05.640Z,995.13
2022-08-03T06:09:05.597Z,995.16
2022-08-03T06:10:37.491Z,995.13
2022-08-03T06:11:05.557Z,995.14
2022-08-03T06:12:05.655Z,995.18
2022-08-03T06:13:05.534Z,995.21
2022-08-03T06:14:05.505Z,995.18
2022-08-03T06:15:05.488Z,995.19
2022-08-03T06:16:05.471Z,995.16
2022-08-03T06:17:05.455Z,995.13
2022-08-03T06:18:05.435Z,995.17
2022-08-03T06:19:05.416Z,995.16
2022-08-03T06:20:05.395Z,995.17
2022-08-03T06:21:09.547Z,995.20
2022-08-03T06:22:05.365Z,995.16
2022-08-03T06:23:05.356Z,995.18
2022-08-03T06:24:06.200Z,995.19
2022-08-03T06:25:08.247Z,995.19
2022-08-03T06:26:05.299Z,995.20
2022-08-03T06:27:05.280Z,995.19
2022-08-03T06:28:05.267Z,995.22
2022-08-03T06:29:05.248Z,995.22
2022-08-03T06:30:05.257Z,995.24
2022-08-03T06:31:06.380Z,995.21
2022-08-03T06:32:05.231Z,995.21
2022-08-03T06:33:05.187Z,995.17
2022-08-03T06:34:32.324Z,995.19
2022-08-03T06:35:05.163Z,995.22
2022-08-03T06:36:05.142Z,995.20
2022-08-03T06:37:05.117Z,995.22
2022-08-03T06:38:05.130Z,995.22
2022-08-03T06:39:05.084Z,995.19
2022-08-03T06:40:05.073Z,995.21
2022-08-03T06:41:05.051Z,995.21
2022-08-03T06:42:05.072Z,995.24
2022-08-03T06:43:06.132Z,995.23
2022-08-03T06:44:05.004Z,995.23
2022-08-03T06:45:04.992Z,995.24
2022-08-03T06:46:04.974Z,995.25
2022-08-03T06:47:04.955Z,995.25
2022-08-03T06:48:04.947Z,995.30
2022-08-03T06:49:04.952Z,995.27
2022-08-03T06:50:12.664Z,995.23
2022-08-03T06:51:04.893Z,995.24
2022-08-03T06:52:06.874Z,995.26
2022-08-03T06:53:04.862Z,995.26
2022-08-03T06:54:04.857Z,995.29
2022-08-03T06:55:04.832Z,995.32
2022-08-03T06:56:04.814Z,995.33
2022-08-03T06:57:04.802Z,995.36
2022-08-03T06:58:04.788Z,995.38
2022-08-03T06:59:04.787Z,995.38
2022-08-03T07:00:08.951Z,995.42
2022-08-03T07:01:04.796Z,995.41
2022-08-03T07:02:04.737Z,995.39
2022-08-03T07:03:04.716Z,995.40
2022-08-03T07:04:04.707Z,995.43
2022-08-03T07:05:04.684Z,995.44
2022-08-03T07:06:04.667Z,995.41
2022-08-03T07:07:04.653Z,995.41
2022-08-03T07:08:04.635Z,995.41
2022-08-03T07:09:04.636Z,995.42
2022-08-03T07:10:04.612Z,995.43
2022-08-03T07:11:04.612Z,995.41
2022-08-03T07:12:04.580Z,995.44
2022-08-03T07:13:04.571Z,995.43
2022-08-03T07:14:04.554Z,995.41
2022-08-03T07:15:04.771Z,995.42
2022-08-03T07:16:04.527Z,995.42
2022-08-03T07:17:11.938Z,995.43
2022-08-03T07:18:04.495Z,995.44
2022-08-03T07:19:04.494Z,995.42
2022-08-03T07:20:04.476Z,995.42
2022-08-03T07:21:04.460Z,995.42
2022-08-03T07:22:04.633Z,995.44
2022-08-03T07:23:04.432Z,995.44
2022-08-03T07:24:04.419Z,995.44
2022-08-03T07:25:04.414Z,995.45
2022-08-03T07:26:04.395Z,995.45
2022-08-03T07:27:04.380Z,995.46
2022-08-03T07:28:04.368Z,995.48
2022-08-03T07:29:04.356Z,995.45
2022-08-03T07:30:04.338Z,995.44
2022-08-03T07:31:04.330Z,995.46
2022-08-03T07:32:04.325Z,995.47
2022-08-03T07:33:04.304Z,995.48
2022-08-03T07:34:04.295Z,995.47
2022-08-03T07:35:04.278Z,995.47
2022-08-03T07:36:04.267Z,995.49
2022-08-03T07:37:04.254Z,995.47
2022-08-03T07:38:04.242Z,995.48
2022-08-03T07:39:16.599Z,995.46
2022-08-03T07:40:04.227Z,995.51
2022-08-03T07:41:04.209Z,995.46
2022-08-03T07:42:04.200Z,995.48
2022-08-03T07:43:04.190Z,995.47
2022-08-03T07:44:04.180Z,995.47
2022-08-03T07:45:04.182Z,995.47
2022-08-03T07:46:04.153Z,995.46
2022-08-03T07:47:04.149Z,995.50
2022-08-03T07:48:08.772Z,995.49
2022-08-03T07:49:04.232Z,995.49
2022-08-03T07:50:04.115Z,995.51
2022-08-03T07:51:04.113Z,995.50
2022-08-03T07:52:04.094Z,995.48
2022-08-03T07:53:04.089Z,995.46
2022-08-03T07:54:04.089Z,995.45
2022-08-03T07:55:04.067Z,995.48
2022-08-03T07:56:04.059Z,995.46
2022-08-03T07:57:04.054Z,995.46
2022-08-03T07:58:04.057Z,995.47
2022-08-03T07:59:04.034Z,995.47
2022-08-03T08:00:04.023Z,995.49
2022-08-03T08:01:04.105Z,995.48
2022-08-03T08:02:04.002Z,995.50
2022-08-03T08:03:03.996Z,995.47
2022-08-03T08:04:03.987Z,995.51
2022-08-03T08:05:05.935Z,995.49
2022-08-03T08:06:03.966Z,995.44
2022-08-03T08:07:03.956Z,995.46
2022-08-03T08:08:03.967Z,995.45
2022-08-03T08:09:03.936Z,995.47
2022-08-03T08:10:03.928Z,995.47
2022-08-03T08:11:03.923Z,995.45
2022-08-03T08:12:03.914Z,995.47
2022-08-03T08:13:03.906Z,995.44
2022-08-03T08:14:03.891Z,995.44
2022-08-03T08:15:03.882Z,995.45
2022-08-03T08:16:03.881Z,995.43
2022-08-03T08:17:07.244Z,995.45
2022-08-03T08:18:03.857Z,995.43
2022-08-03T08:19:03.850Z,995.43
2022-08-03T08:20:03.843Z,995.45
2022-08-03T08:21:03.834Z,995.41
2022-08-03T08:22:03.841Z,995.39
2022-08-03T08:23:09.581Z,995.35
2022-08-03T08:24:04.501Z,995.36
2022-08-03T08:25:03.804Z,995.38
2022-08-03T08:26:03.789Z,995.39
2022-08-03T08:27:03.788Z,995.37
2022-08-03T08:28:30.056Z,995.38
2022-08-03T08:29:03.788Z,995.37
2022-08-03T08:30:10.197Z,995.40
2022-08-03T08:31:03.767Z,995.38
2022-08-03T08:32:03.755Z,995.39
2022-08-03T08:33:03.736Z,995.35
2022-08-03T08:34:04.735Z,995.34
2022-08-03T08:35:03.719Z,995.38
2022-08-03T08:36:03.727Z,995.34
2022-08-03T08:37:03.709Z,995.39
2022-08-03T08:38:04.172Z,995.34
2022-08-03T08:39:03.687Z,995.33
2022-08-03T08:40:03.689Z,995.36
2022-08-03T08:41:03.673Z,995.40
2022-08-03T08:42:03.664Z,995.36
2022-08-03T08:43:03.670Z,995.36
2022-08-03T08:44:03.651Z,995.36
2022-08-03T08:45:03.645Z,995.36
2022-08-03T08:46:03.630Z,995.35
2022-08-03T08:47:03.628Z,995.35
2022-08-03T08:48:07.931Z,995.37
2022-08-03T08:49:05.031Z,995.32
2022-08-03T08:50:10.083Z,995.35
2022-08-03T08:51:03.593Z,995.37
2022-08-03T08:52:03.597Z,995.35
2022-08-03T08:53:03.585Z,995.34
2022-08-03T08:54:03.578Z,995.34
2022-08-03T08:55:03.567Z,995.32
2022-08-03T08:56:03.558Z,995.31
2022-08-03T08:57:09.115Z,995.33
2022-08-03T08:58:03.546Z,995.31
2022-08-03T08:59:03.536Z,995.30
2022-08-03T09:00:03.528Z,995.30
2022-08-03T09:01:03.564Z,995.33
2022-08-03T09:02:03.544Z,995.30
2022-08-03T09:03:03.532Z,995.29
2022-08-03T09:04:03.493Z,995.24
2022-08-03T09:05:07.290Z,995.29
2022-08-03T09:06:03.491Z,995.27
2022-08-03T09:07:19.576Z,995.25
2022-08-03T09:08:03.466Z,995.22
2022-08-03T09:09:03.464Z,995.21
2022-08-03T09:10:12.014Z,995.23
2022-08-03T09:11:03.448Z,995.20
2022-08-03T09:12:28.136Z,995.25
2022-08-03T09:13:03.426Z,995.23
2022-08-03T09:14:03.424Z,995.22
2022-08-03T09:15:16.439Z,995.25
2022-08-03T09:16:03.415Z,995.22
2022-08-03T09:17:03.401Z,995.26
2022-08-03T09:18:03.397Z,995.23
2022-08-03T09:19:03.385Z,995.25
2022-08-03T09:20:03.960Z,995.24
2022-08-03T09:21:18.932Z,995.27
2022-08-03T09:22:03.363Z,995.28
2022-08-03T09:23:14.001Z,995.30
2022-08-03T09:24:05.423Z,995.26
2022-08-03T09:25:23.428Z,995.26
2022-08-03T09:26:03.332Z,995.25
2022-08-03T09:27:03.329Z,995.31
2022-08-03T09:28:03.316Z,995.28
2022-08-03T09:29:09.287Z,995.24
2022-08-03T09:30:03.308Z,995.24
2022-08-03T09:31:03.296Z,995.27
2022-08-03T09:32:03.293Z,995.28
2022-08-03T09:33:03.284Z,995.25
2022-08-03T09:34:03.277Z,995.26
2022-08-03T09:35:03.273Z,995.24
2022-08-03T09:36:03.263Z,995.28
2022-08-03T09:37:03.253Z,995.27
2022-08-03T09:38:11.925Z,995.22
2022-08-03T09:39:03.237Z,995.17
2022-08-03T09:40:03.230Z,995.18
2022-08-03T09:41:03.227Z,995.19
2022-08-03T09:42:03.217Z,995.15
2022-08-03T09:43:03.206Z,995.15
2022-08-03T09:44:03.208Z,995.15
2022-08-03T09:45:03.192Z,995.15
2022-08-03T09:46:03.186Z,995.11
2022-08-03T09:47:03.183Z,995.08
2022-08-03T09:48:03.173Z,995.14
2022-08-03T09:49:03.208Z,995.11
2022-08-03T09:50:03.155Z,995.12
2022-08-03T09:51:13.397Z,995.13
2022-08-03T09:52:38.495Z,995.11
2022-08-03T09:53:03.134Z,995.10
2022-08-03T09:54:03.127Z,995.11
2022-08-03T09:55:03.139Z,995.11
2022-08-03T09:56:34.514Z,995.07
2022-08-03T09:57:03.105Z,995.11
2022-08-03T09:58:03.101Z,995.14
2022-08-03T09:59:03.096Z,995.10
2022-08-03T10:00:08.213Z,995.12
2022-08-03T10:01:03.159Z,995.15
2022-08-03T10:02:03.082Z,995.12
2022-08-03T10:03:03.066Z,995.14
2022-08-03T10:04:05.125Z,995.10
2022-08-03T10:05:03.053Z,995.12
2022-08-03T10:06:03.045Z,995.10
2022-08-03T10:07:03.044Z,995.14
2022-08-03T10:08:03.032Z,995.13
2022-08-03T10:09:03.074Z,995.14
2022-08-03T10:10:29.133Z,995.12
2022-08-03T10:11:03.016Z,995.15
2022-08-03T10:12:03.012Z,995.10
2022-08-03T10:13:03.038Z,995.11
2022-08-03T10:14:03.000Z,995.02
2022-08-03T10:15:02.992Z,995.01
2022-08-03T10:16:22.945Z,995.04
2022-08-03T10:17:02.990Z,995.02
2022-08-03T10:18:02.984Z,995.01
2022-08-03T10:19:02.986Z,995.00
2022-08-03T10:20:02.961Z,994.99
2022-08-03T10:21:02.962Z,994.99
2022-08-03T10:22:02.957Z,994.97
2022-08-03T10:23:02.948Z,994.95
2022-08-03T10:24:02.941Z,994.95
2022-08-03T10:25:02.939Z,994.96
2022-08-03T10:26:02.948Z,994.97
2022-08-03T10:27:02.923Z,994.98
2022-08-03T10:28:02.924Z,994.97
2022-08-03T10:29:02.948Z,995.01
2022-08-03T10:30:02.910Z,994.97
2022-08-03T10:31:02.904Z,994.94
2022-08-03T10:32:02.903Z,994.92
2022-08-03T10:33:02.906Z,994.89
2022-08-03T10:34:02.921Z,994.83
2022-08-03T10:35:19.559Z,994.90
2022-08-03T10:36:02.884Z,994.88
2022-08-03T10:37:02.872Z,994.90
2022-08-03T10:38:02.872Z,994.87
2022-08-03T10:39:02.866Z,994.89
2022-08-03T10:40:02.868Z,994.86
2022-08-03T10:41:02.870Z,994.85
2022-08-03T10:42:03.069Z,994.85
2022-08-03T10:43:02.864Z,994.86
2022-08-03T10:44:02.849Z,994.80
2022-08-03T10:45:02.839Z,994.81
2022-08-03T10:46:02.845Z,994.77
2022-08-03T10:47:02.842Z,994.79
2022-08-03T10:48:02.828Z,994.77
2022-08-03T10:49:02.883Z,994.72
2022-08-03T10:50:02.833Z,994.73
2022-08-03T10:51:02.816Z,994.69
2022-08-03T10:52:08.416Z,994.66
2022-08-03T10:53:03.859Z,994.67
2022-08-03T10:54:02.808Z,994.69
2022-08-03T10:55:03.290Z,994.65
2022-08-03T10:56:02.806Z,994.63
2022-08-03T10:57:13.461Z,994.65
2022-08-03T10:58:02.786Z,994.62
2022-08-03T10:59:03.849Z,994.62
2022-08-03T11:00:02.788Z,994.62
2022-08-03T11:01:02.964Z,994.59
2022-08-03T11:02:02.779Z,994.55
2022-08-03T11:03:02.789Z,994.58
2022-08-03T11:04:06.157Z,994.57
2022-08-03T11:05:02.778Z,994.62
2022-08-03T11:06:02.772Z,994.59
2022-08-03T11:07:02.766Z,994.56
2022-08-03T11:08:02.769Z,994.56
2022-08-03T11:09:02.761Z,994.58
2022-08-03T11:10:05.543Z,994.59
2022-08-03T11:11:02.756Z,994.59
2022-08-03T11:12:02.790Z,994.60
2022-08-03T11:13:02.753Z,994.61
2022-08-03T11:14:02.777Z,994.61
2022-08-03T11:15:02.763Z,994.59
2022-08-03T11:16:06.025Z,994.58
2022-08-03T11:17:02.745Z,994.57
2022-08-03T11:18:02.760Z,994.57
2022-08-03T11:19:02.829Z,994.56
2022-08-03T11:20:02.751Z,994.52
2022-08-03T11:21:02.744Z,994.50
2022-08-03T11:22:02.748Z,994.47
2022-08-03T11:23:02.744Z,994.48
2022-08-03T11:24:06.484Z,994.46
2022-08-03T11:25:02.769Z,994.52
2022-08-03T11:26:02.743Z,994.48
2022-08-03T11:27:05.845Z,994.44
2022-08-03T11:28:02.752Z,994.40
2022-08-03T11:29:02.742Z,994.39
2022-08-03T11:30:02.746Z,994.38
2022-08-03T11:31:02.749Z,994.37
2022-08-03T11:32:02.742Z,994.33
2022-08-03T11:33:02.755Z,994.31
2022-08-03T11:34:02.751Z,994.28
2022-08-03T11:35:02.747Z,994.28
2022-08-03T11:36:02.754Z,994.27
2022-08-03T11:37:02.741Z,994.28
2022-08-03T11:38:05.112Z,994.25
2022-08-03T11:39:02.744Z,994.26
2022-08-03T11:40:03.099Z,994.10
2022-08-03T11:41:02.782Z,994.23
2022-08-03T11:42:02.781Z,994.29
2022-08-03T11:43:02.763Z,994.27
2022-08-03T11:44:02.751Z,994.39
2022-08-03T11:45:02.765Z,994.43
2022-08-03T11:46:02.807Z,994.39
2022-08-03T11:47:02.752Z,994.40
2022-08-03T11:48:02.756Z,994.39
2022-08-03T11:49:06.449Z,994.40
2022-08-03T11:50:02.755Z,994.38
2022-08-03T11:51:02.755Z,994.38
2022-08-03T11:52:02.767Z,994.40
2022-08-03T11:53:02.754Z,994.43
2022-08-03T11:54:02.752Z,994.41
2022-08-03T11:55:02.790Z,994.41
2022-08-03T11:56:02.754Z,994.37
2022-08-03T11:57:02.754Z,994.36
2022-08-03T11:59:15.375Z,994.32
2022-08-03T11:59:20.021Z,994.30
2022-08-03T12:00:02.878Z,994.26
2022-08-03T12:01:02.758Z,994.24
2022-08-03T12:02:02.761Z,994.24
2022-08-03T12:03:02.852Z,994.22
2022-08-03T12:04:02.769Z,994.20
2022-08-03T12:05:02.826Z,994.19
2022-08-03T12:06:02.770Z,994.18
2022-08-03T12:07:02.780Z,994.16
2022-08-03T12:08:06.343Z,994.13
2022-08-03T12:09:02.804Z,994.14
2022-08-03T12:10:02.778Z,994.10
2022-08-03T12:11:02.776Z,994.11
2022-08-03T12:12:02.784Z,994.12
2022-08-03T12:13:02.789Z,994.12
2022-08-03T12:14:45.550Z,994.11
2022-08-03T12:15:02.782Z,994.08
2022-08-03T12:16:02.784Z,994.05
2022-08-03T12:17:02.788Z,994.09
2022-08-03T12:18:02.951Z,994.10
2022-08-03T12:19:02.791Z,994.06
2022-08-03T12:20:02.792Z,994.08
2022-08-03T12:21:02.789Z,994.09
2022-08-03T12:22:02.795Z,994.06
2022-08-03T12:23:02.794Z,994.05
2022-08-03T12:24:02.807Z,994.05
2022-08-03T12:25:02.803Z,994.03
2022-08-03T12:26:02.825Z,994.02
2022-08-03T12:27:02.805Z,994.04
2022-08-03T12:28:02.802Z,994.00